createdAt,value
2023-03-23T16:00:41.207Z,99590.66
2023-03-23T16:05:46.267Z,99589.91
2023-03-23T16:10:50.775Z,99583.81
2023-03-23T16:15:52.407Z,99577.81
2023-03-23T16:20:53.950Z,99578.97
2023-03-23T16:25:55.493Z,99582.03
2023-03-23T16:30:57.076Z,99572.19
2023-03-23T16:35:58.777Z,99574.19
2023-03-23T16:41:00.506Z,99555.38
2023-03-23T16:46:02.341Z,99556.75
2023-03-23T16:51:04.020Z,99545.97
2023-03-23T16:56:05.982Z,99552.63
2023-03-23T17:01:08.040Z,99542.16
2023-03-23T17:06:09.795Z,99547.94
2023-03-23T17:11:11.454Z,99541.06
2023-03-23T17:16:13.050Z,99542.19
2023-03-23T17:21:14.665Z,99538.34
2023-03-23T17:26:16.435Z,99534.78
2023-03-23T17:31:18.226Z,99542.78
2023-03-23T17:36:19.866Z,99537.25
2023-03-23T17:41:21.461Z,99538.66
2023-03-23T17:46:23.098Z,99535.63
2023-03-23T17:51:24.677Z,99532.03
2023-03-23T17:56:26.282Z,99532.03
2023-03-23T18:01:27.953Z,99529.28
2023-03-23T18:06:29.501Z,99527.34
2023-03-23T18:11:31.187Z,99519.09
2023-03-23T18:16:33.086Z,99519.91
2023-03-23T18:21:34.619Z,99516.88
2023-03-23T18:26:36.446Z,99520.72
2023-03-23T18:31:40.158Z,99513.56
2023-03-23T18:36:44.286Z,99513.00
2023-03-23T18:41:45.954Z,99512.47
2023-03-23T18:46:47.497Z,99510.25
2023-03-23T18:51:49.201Z,99507.19
2023-03-23T18:56:50.787Z,99514.94
2023-03-23T19:01:52.464Z,99505.25
2023-03-23T19:06:54.054Z,99504.19
2023-03-23T19:11:56.299Z,99501.41
2023-03-23T19:16:57.833Z,99495.91
2023-03-23T19:22:00.119Z,99499.50
2023-03-23T19:27:01.945Z,99500.06
2023-03-23T19:32:03.574Z,99495.34
2023-03-23T19:37:10.207Z,99489.00
2023-03-23T19:42:16.733Z,99487.63
2023-03-23T19:47:18.509Z,99482.38
2023-03-23T19:52:20.137Z,99477.44
2023-03-23T19:57:22.310Z,99476.59
2023-03-23T20:02:23.963Z,99473.03
2023-03-23T20:07:26.957Z,99461.13
2023-03-23T20:12:28.579Z,99462.25
2023-03-23T20:17:30.662Z,99459.78
2023-03-23T20:22:32.248Z,99457.03
2023-03-23T20:27:35.000Z,99461.44
2023-03-23T20:32:37.352Z,99454.00
2023-03-23T20:37:40.333Z,99457.56
2023-03-23T20:42:44.088Z,99458.41
2023-03-23T20:47:46.149Z,99452.31
2023-03-23T20:52:48.029Z,99446.81
2023-03-23T20:57:49.559Z,99442.69
2023-03-23T21:02:54.093Z,99440.75
2023-03-23T21:07:57.977Z,99437.44
2023-03-23T21:13:00.109Z,99428.34
2023-03-23T21:18:01.723Z,99418.16
2023-03-23T21:23:06.376Z,99407.38
2023-03-23T21:28:08.928Z,99406.03
2023-03-23T21:33:11.556Z,99399.66
2023-03-23T21:38:14.693Z,99394.72
2023-03-23T21:43:16.877Z,99392.56
2023-03-23T21:48:18.867Z,99388.72
2023-03-23T21:53:22.331Z,99381.31
2023-03-23T21:58:27.387Z,99391.25
2023-03-23T22:03:33.120Z,99378.56
2023-03-23T22:08:37.245Z,99367.31
2023-03-23T22:13:40.649Z,99370.34
2023-03-23T22:18:43.406Z,99363.44
2023-03-23T22:23:46.189Z,99355.72
2023-03-23T22:28:49.538Z,99371.69
2023-03-23T22:33:55.497Z,99385.19
2023-03-23T22:38:57.144Z,99374.69
2023-03-23T22:43:58.801Z,99387.19
2023-03-23T22:49:00.640Z,99401.03
2023-03-23T22:54:02.309Z,99389.09
2023-03-23T22:59:07.792Z,99402.69
2023-03-23T23:04:09.569Z,99408.66
2023-03-23T23:09:11.190Z,99402.13
2023-03-23T23:14:12.760Z,99395.09
2023-03-23T23:19:14.916Z,99372.56
2023-03-23T23:24:17.087Z,99363.19
2023-03-23T23:29:18.801Z,99349.38
2023-03-23T23:34:22.134Z,99343.00
2023-03-23T23:39:23.645Z,99343.50
2023-03-23T23:44:25.575Z,99340.84
2023-03-23T23:49:29.911Z,99336.81
2023-03-23T23:54:31.755Z,99329.59
2023-03-23T23:59:33.408Z,99320.22
